sensor_id;sensor_type;location;lat;lon;timestamp;pressure;altitude;pressure_sealevel;temperature;humidity
10881;BME280;5493;48.884;8.338;2024-01-10T00:01:53;101191.69;;;-2.88;100.00
10881;BME280;5493;48.884;8.338;2024-01-10T00:04:20;101194.00;;;-2.84;100.00
10881;BME280;5493;48.884;8.338;2024-01-10T00:06:46;101194.28;;;-2.76;100.00
10881;BME280;5493;48.884;8.338;2024-01-10T00:09:13;101198.66;;;-2.64;100.00
10881;BME280;5493;48.884;8.338;2024-01-10T00:11:40;101186.84;;;-2.71;100.00
10881;BME280;5493;48.884;8.338;2024-01-10T00:14:06;101177.25;;;-2.48;100.00
10881;BME280;5493;48.884;8.338;2024-01-10T00:16:34;101188.53;;;-2.46;100.00
10881;BME280;5493;48.884;8.338;2024-01-10T00:19:00;101186.53;;;-2.31;100.00
10881;BME280;5493;48.884;8.338;2024-01-10T00:21:27;101187.00;;;-2.37;100.00
10881;BME280;5493;48.884;8.338;2024-01-10T00:23:54;101180.56;;;-2.22;100.00
10881;BME280;5493;48.884;8.338;2024-01-10T00:26:21;101175.19;;;-2.21;100.00
10881;BME280;5493;48.884;8.338;2024-01-10T00:28:47;101174.47;;;-2.12;100.00
10881;BME280;5493;48.884;8.338;2024-01-10T00:31:13;101165.50;;;-1.98;100.00
10881;BME280;5493;48.884;8.338;2024-01-10T00:33:41;101166.44;;;-2.10;100.00
10881;BME280;5493;48.884;8.338;2024-01-10T00:36:08;101170.16;;;-2.02;100.00
10881;BME280;5493;48.884;8.338;2024-01-10T00:38:34;101157.94;;;-1.91;100.00
10881;BME280;5493;48.884;8.338;2024-01-10T00:41:01;101155.28;;;-1.91;100.00
10881;BME280;5493;48.884;8.338;2024-01-10T00:43:28;101152.75;;;-2.04;100.00
10881;BME280;5493;48.884;8.338;2024-01-10T00:45:54;101155.66;;;-2.07;100.00
10881;BME280;5493;48.884;8.338;2024-01-10T00:48:23;101149.66;;;-1.87;100.00
10881;BME280;5493;48.884;8.338;2024-01-10T00:50:51;101157.81;;;-1.90;100.00
10881;BME280;5493;48.884;8.338;2024-01-10T00:53:18;101153.03;;;-1.85;100.00
10881;BME280;5493;48.884;8.338;2024-01-10T00:55:44;101151.81;;;-1.70;100.00
10881;BME280;5493;48.884;8.338;2024-01-10T00:58:11;101148.47;;;-1.83;100.00
10881;BME280;5493;48.884;8.338;2024-01-10T01:00:37;101157.94;;;-1.69;100.00
10881;BME280;5493;48.884;8.338;2024-01-10T01:03:04;101155.78;;;-1.75;100.00
10881;BME280;5493;48.884;8.338;2024-01-10T01:05:31;101161.78;;;-1.62;100.00
10881;BME280;5493;48.884;8.338;2024-01-10T01:07:58;101161.19;;;-1.66;100.00
10881;BME280;5493;48.884;8.338;2024-01-10T01:10:25;101159.84;;;-1.93;100.00
10881;BME280;5493;48.884;8.338;2024-01-10T01:12:52;101159.13;;;-1.84;100.00
10881;BME280;5493;48.884;8.338;2024-01-10T01:15:18;101161.69;;;-1.83;100.00
10881;BME280;5493;48.884;8.338;2024-01-10T01:17:44;101167.88;;;-1.95;100.00
10881;BME280;5493;48.884;8.338;2024-01-10T01:20:11;101156.72;;;-1.87;100.00
10881;BME280;5493;48.884;8.338;2024-01-10T01:22:37;101161.31;;;-1.89;100.00
10881;BME280;5493;48.884;8.338;2024-01-10T01:25:06;101160.56;;;-1.91;100.00
10881;BME280;5493;48.884;8.338;2024-01-10T01:27:32;101158.66;;;-2.01;100.00
10881;BME280;5493;48.884;8.338;2024-01-10T01:29:59;101156.00;;;-2.01;100.00
10881;BME280;5493;48.884;8.338;2024-01-10T01:32:25;101158.53;;;-2.10;100.00
10881;BME280;5493;48.884;8.338;2024-01-10T01:34:52;101161.19;;;-1.99;100.00
10881;BME280;5493;48.884;8.338;2024-01-10T01:37:18;101156.63;;;-1.86;100.00
10881;BME280;5493;48.884;8.338;2024-01-10T01:39:45;101158.31;;;-1.85;100.00
10881;BME280;5493;48.884;8.338;2024-01-10T01:42:13;101157.34;;;-1.84;100.00
10881;BME280;5493;48.884;8.338;2024-01-10T01:44:39;101152.91;;;-1.61;100.00
10881;BME280;5493;48.884;8.338;2024-01-10T01:47:06;101155.56;;;-1.61;100.00
10881;BME280;5493;48.884;8.338;2024-01-10T01:49:34;101152.41;;;-1.55;100.00
10881;BME280;5493;48.884;8.338;2024-01-10T01:52:01;101152.31;;;-1.54;100.00
10881;BME280;5493;48.884;8.338;2024-01-10T01:54:29;101152.06;;;-1.28;100.00
10881;BME280;5493;48.884;8.338;2024-01-10T01:56:57;101149.06;;;-1.35;100.00
10881;BME280;5493;48.884;8.338;2024-01-10T01:59:25;101141.97;;;-1.34;100.00
10881;BME280;5493;48.884;8.338;2024-01-10T02:01:52;101155.28;;;-1.25;100.00
10881;BME280;5493;48.884;8.338;2024-01-10T02:04:20;101147.34;;;-1.14;100.00
10881;BME280;5493;48.884;8.338;2024-01-10T02:06:47;101145.22;;;-1.31;100.00
10881;BME280;5493;48.884;8.338;2024-01-10T02:09:13;101148.13;;;-1.45;100.00
10881;BME280;5493;48.884;8.338;2024-01-10T02:11:40;101137.53;;;-1.34;100.00
10881;BME280;5493;48.884;8.338;2024-01-10T02:14:15;101130.66;;;-1.48;100.00
10881;BME280;5493;48.884;8.338;2024-01-10T02:16:43;101132.25;;;-1.56;100.00
10881;BME280;5493;48.884;8.338;2024-01-10T02:19:20;101128.88;;;-1.69;100.00
10881;BME280;5493;48.884;8.338;2024-01-10T02:21:47;101128.16;;;-1.49;100.00
10881;BME280;5493;48.884;8.338;2024-01-10T02:24:13;101129.09;;;-1.39;100.00
10881;BME280;5493;48.884;8.338;2024-01-10T02:26:41;101123.44;;;-1.23;100.00
10881;BME280;5493;48.884;8.338;2024-01-10T02:29:07;101128.50;;;-1.42;100.00
10881;BME280;5493;48.884;8.338;2024-01-10T02:31:36;101125.25;;;-1.24;100.00
10881;BME280;5493;48.884;8.338;2024-01-10T02:34:03;101130.28;;;-1.32;100.00
10881;BME280;5493;48.884;8.338;2024-01-10T02:36:32;101121.16;;;-1.39;100.00
10881;BME280;5493;48.884;8.338;2024-01-10T02:38:59;101123.22;;;-1.31;100.00
10881;BME280;5493;48.884;8.338;2024-01-10T02:41:25;101128.63;;;-1.44;100.00
10881;BME280;5493;48.884;8.338;2024-01-10T02:43:54;101126.53;;;-1.18;99.73
10881;BME280;5493;48.884;8.338;2024-01-10T02:46:24;101130.41;;;-1.44;100.00
10881;BME280;5493;48.884;8.338;2024-01-10T02:48:53;101132.00;;;-1.42;100.00
10881;BME280;5493;48.884;8.338;2024-01-10T02:51:19;101121.78;;;-1.46;100.00
10881;BME280;5493;48.884;8.338;2024-01-10T02:53:46;101121.19;;;-1.50;100.00
10881;BME280;5493;48.884;8.338;2024-01-10T02:56:13;101117.25;;;-1.67;100.00
10881;BME280;5493;48.884;8.338;2024-01-10T02:58:39;101110.84;;;-1.42;100.00
10881;BME280;5493;48.884;8.338;2024-01-10T03:01:07;101115.28;;;-1.31;100.00
10881;BME280;5493;48.884;8.338;2024-01-10T03:03:34;101109.03;;;-1.30;100.00
10881;BME280;5493;48.884;8.338;2024-01-10T03:06:01;101108.28;;;-1.21;100.00
10881;BME280;5493;48.884;8.338;2024-01-10T03:08:27;101107.31;;;-1.20;100.00
10881;BME280;5493;48.884;8.338;2024-01-10T03:10:53;101100.59;;;-1.24;98.92
10881;BME280;5493;48.884;8.338;2024-01-10T03:13:20;101096.72;;;-1.20;95.40
10881;BME280;5493;48.884;8.338;2024-01-10T03:15:46;101103.63;;;-0.97;100.00
10881;BME280;5493;48.884;8.338;2024-01-10T03:18:16;101097.69;;;-1.21;97.01
10881;BME280;5493;48.884;8.338;2024-01-10T03:20:43;101095.81;;;-1.41;99.91
10881;BME280;5493;48.884;8.338;2024-01-10T03:23:13;101084.19;;;-1.07;98.91
10881;BME280;5493;48.884;8.338;2024-01-10T03:25:39;101086.53;;;-1.36;98.46
10881;BME280;5493;48.884;8.338;2024-01-10T03:28:06;101093.34;;;-1.22;98.96
10881;BME280;5493;48.884;8.338;2024-01-10T03:30:32;101087.47;;;-1.26;98.40
10881;BME280;5493;48.884;8.338;2024-01-10T03:32:59;101093.09;;;-1.19;99.07
10881;BME280;5493;48.884;8.338;2024-01-10T03:35:26;101104.16;;;-1.14;96.90
10881;BME280;5493;48.884;8.338;2024-01-10T03:37:53;101103.69;;;-1.19;97.36
10881;BME280;5493;48.884;8.338;2024-01-10T03:40:20;101101.44;;;-1.35;96.88
10881;BME280;5493;48.884;8.338;2024-01-10T03:42:46;101103.47;;;-1.27;96.21
10881;BME280;5493;48.884;8.338;2024-01-10T03:45:13;101107.41;;;-1.11;95.86
10881;BME280;5493;48.884;8.338;2024-01-10T03:47:42;101103.53;;;-1.07;96.52
10881;BME280;5493;48.884;8.338;2024-01-10T03:50:09;101110.81;;;-1.20;96.40
10881;BME280;5493;48.884;8.338;2024-01-10T03:52:36;101107.19;;;-1.30;97.28
10881;BME280;5493;48.884;8.338;2024-01-10T03:55:03;101116.91;;;-1.19;98.40
10881;BME280;5493;48.884;8.338;2024-01-10T03:57:30;101115.84;;;-1.17;97.30
10881;BME280;5493;48.884;8.338;2024-01-10T03:59:56;101119.47;;;-1.29;98.11
10881;BME280;5493;48.884;8.338;2024-01-10T04:02:23;101116.09;;;-1.20;97.87
10881;BME280;5493;48.884;8.338;2024-01-10T04:04:49;101127.13;;;-1.15;98.52
10881;BME280;5493;48.884;8.338;2024-01-10T04:07:16;101123.50;;;-1.03;97.96
10881;BME280;5493;48.884;8.338;2024-01-10T04:09:44;101125.81;;;-1.09;96.40
10881;BME280;5493;48.884;8.338;2024-01-10T04:12:10;101119.31;;;-1.05;96.10
10881;BME280;5493;48.884;8.338;2024-01-10T04:14:37;101119.16;;;-1.04;98.02
10881;BME280;5493;48.884;8.338;2024-01-10T04:17:03;101104.53;;;-1.19;96.89
10881;BME280;5493;48.884;8.338;2024-01-10T04:19:32;101116.19;;;-1.10;96.37
10881;BME280;5493;48.884;8.338;2024-01-10T04:21:58;101112.47;;;-1.19;95.50
10881;BME280;5493;48.884;8.338;2024-01-10T04:24:25;101110.59;;;-0.96;100.00
10881;BME280;5493;48.884;8.338;2024-01-10T04:26:53;101114.81;;;-1.05;97.98
10881;BME280;5493;48.884;8.338;2024-01-10T04:29:19;101122.31;;;-1.10;97.78
10881;BME280;5493;48.884;8.338;2024-01-10T04:31:45;101118.72;;;-1.09;99.30
10881;BME280;5493;48.884;8.338;2024-01-10T04:34:12;101107.97;;;-0.96;99.21
10881;BME280;5493;48.884;8.338;2024-01-10T04:36:38;101114.13;;;-1.07;99.29
10881;BME280;5493;48.884;8.338;2024-01-10T04:39:05;101109.75;;;-0.96;96.42
10881;BME280;5493;48.884;8.338;2024-01-10T04:41:31;101111.47;;;-0.75;99.08
10881;BME280;5493;48.884;8.338;2024-01-10T04:43:59;101107.25;;;-0.98;97.21
10881;BME280;5493;48.884;8.338;2024-01-10T04:46:26;101099.66;;;-0.91;98.05
10881;BME280;5493;48.884;8.338;2024-01-10T04:48:52;101102.56;;;-0.94;99.24
10881;BME280;5493;48.884;8.338;2024-01-10T04:51:18;101099.59;;;-0.80;98.99
10881;BME280;5493;48.884;8.338;2024-01-10T04:53:45;101103.13;;;-0.59;100.00
10881;BME280;5493;48.884;8.338;2024-01-10T04:56:11;101102.84;;;-0.77;100.00
10881;BME280;5493;48.884;8.338;2024-01-10T04:58:41;101104.81;;;-0.37;100.00
10881;BME280;5493;48.884;8.338;2024-01-10T05:01:09;101108.41;;;-0.59;100.00
10881;BME280;5493;48.884;8.338;2024-01-10T05:03:35;101111.84;;;-0.27;100.00
10881;BME280;5493;48.884;8.338;2024-01-10T05:06:01;101119.38;;;-0.64;100.00
10881;BME280;5493;48.884;8.338;2024-01-10T05:08:28;101115.09;;;-0.44;100.00
10881;BME280;5493;48.884;8.338;2024-01-10T05:10:54;101100.84;;;-0.64;100.00
10881;BME280;5493;48.884;8.338;2024-01-10T05:13:21;101101.09;;;-0.25;100.00
10881;BME280;5493;48.884;8.338;2024-01-10T05:15:47;101103.84;;;-0.36;100.00
10881;BME280;5493;48.884;8.338;2024-01-10T05:18:16;101103.97;;;-0.59;100.00
10881;BME280;5493;48.884;8.338;2024-01-10T05:20:43;101099.56;;;-0.69;100.00
10881;BME280;5493;48.884;8.338;2024-01-10T05:23:09;101096.81;;;-0.79;100.00
10881;BME280;5493;48.884;8.338;2024-01-10T05:25:36;101099.47;;;-0.79;100.00
10881;BME280;5493;48.884;8.338;2024-01-10T05:28:03;101097.34;;;-0.64;100.00
10881;BME280;5493;48.884;8.338;2024-01-10T05:30:29;101100.91;;;-0.75;100.00
10881;BME280;5493;48.884;8.338;2024-01-10T05:32:57;101098.88;;;-0.82;100.00
10881;BME280;5493;48.884;8.338;2024-01-10T05:35:25;101107.72;;;-1.04;100.00
10881;BME280;5493;48.884;8.338;2024-01-10T05:37:53;101109.50;;;-0.93;100.00
10881;BME280;5493;48.884;8.338;2024-01-10T05:40:19;101096.63;;;-0.87;100.00
10881;BME280;5493;48.884;8.338;2024-01-10T05:42:46;101095.81;;;-0.98;100.00
10881;BME280;5493;48.884;8.338;2024-01-10T05:45:13;101097.31;;;-0.85;100.00
10881;BME280;5493;48.884;8.338;2024-01-10T05:47:39;101092.44;;;-1.01;100.00
10881;BME280;5493;48.884;8.338;2024-01-10T05:50:06;101099.19;;;-0.76;100.00
10881;BME280;5493;48.884;8.338;2024-01-10T05:52:35;101102.72;;;-0.86;100.00
10881;BME280;5493;48.884;8.338;2024-01-10T05:55:02;101104.34;;;-0.95;100.00
10881;BME280;5493;48.884;8.338;2024-01-10T05:57:28;101100.22;;;-0.88;100.00
10881;BME280;5493;48.884;8.338;2024-01-10T05:59:56;101097.06;;;-0.82;100.00
10881;BME280;5493;48.884;8.338;2024-01-10T06:02:24;101096.44;;;-0.74;100.00
10881;BME280;5493;48.884;8.338;2024-01-10T06:04:51;101100.50;;;-0.91;100.00
10881;BME280;5493;48.884;8.338;2024-01-10T06:07:40;101100.84;;;-0.95;100.00
10881;BME280;5493;48.884;8.338;2024-01-10T08:29:05;101194.97;;;-1.58;100.00
10881;BME280;5493;48.884;8.338;2024-01-10T08:31:32;101200.50;;;-1.72;100.00
10881;BME280;5493;48.884;8.338;2024-01-10T08:33:58;101205.41;;;-1.79;100.00
10881;BME280;5493;48.884;8.338;2024-01-10T08:36:25;101191.25;;;-1.78;100.00
10881;BME280;5493;48.884;8.338;2024-01-10T08:38:51;101194.22;;;-1.82;100.00
10881;BME280;5493;48.884;8.338;2024-01-10T08:41:17;101195.41;;;-1.98;100.00
10881;BME280;5493;48.884;8.338;2024-01-10T08:43:45;101193.16;;;-1.80;100.00
10881;BME280;5493;48.884;8.338;2024-01-10T08:46:13;101190.38;;;-1.89;100.00
10881;BME280;5493;48.884;8.338;2024-01-10T08:48:39;101194.94;;;-1.80;100.00
10881;BME280;5493;48.884;8.338;2024-01-10T08:51:06;101188.63;;;-1.56;100.00
10881;BME280;5493;48.884;8.338;2024-01-10T08:53:34;101194.50;;;-1.63;100.00
10881;BME280;5493;48.884;8.338;2024-01-10T08:56:01;101195.94;;;-1.70;100.00
10881;BME280;5493;48.884;8.338;2024-01-10T08:58:27;101194.38;;;-1.62;100.00
10881;BME280;5493;48.884;8.338;2024-01-10T09:00:54;101197.25;;;-1.65;100.00
10881;BME280;5493;48.884;8.338;2024-01-10T09:03:21;101193.41;;;-1.50;100.00
10881;BME280;5493;48.884;8.338;2024-01-10T09:05:48;101197.97;;;-1.29;100.00
10881;BME280;5493;48.884;8.338;2024-01-10T09:08:15;101193.88;;;-1.44;100.00
10881;BME280;5493;48.884;8.338;2024-01-10T09:10:42;101199.78;;;-1.41;100.00
10881;BME280;5493;48.884;8.338;2024-01-10T09:13:08;101205.56;;;-1.25;100.00
10881;BME280;5493;48.884;8.338;2024-01-10T09:15:35;101212.75;;;-1.16;100.00
10881;BME280;5493;48.884;8.338;2024-01-10T09:18:02;101218.63;;;-1.01;100.00
10881;BME280;5493;48.884;8.338;2024-01-10T09:20:30;101218.16;;;-1.06;100.00
10881;BME280;5493;48.884;8.338;2024-01-10T09:22:56;101216.72;;;-0.99;100.00
10881;BME280;5493;48.884;8.338;2024-01-10T09:25:25;101212.88;;;-1.06;100.00
10881;BME280;5493;48.884;8.338;2024-01-10T09:27:51;101209.97;;;-0.92;100.00
10881;BME280;5493;48.884;8.338;2024-01-10T09:30:18;101212.69;;;-0.71;100.00
10881;BME280;5493;48.884;8.338;2024-01-10T09:32:45;101211.50;;;-0.78;100.00
10881;BME280;5493;48.884;8.338;2024-01-10T09:35:12;101217.66;;;-1.00;100.00
10881;BME280;5493;48.884;8.338;2024-01-10T09:37:39;101209.78;;;-0.68;100.00
10881;BME280;5493;48.884;8.338;2024-01-10T09:40:07;101200.50;;;-0.63;100.00
10881;BME280;5493;48.884;8.338;2024-01-10T09:42:35;101214.94;;;-0.56;100.00
10881;BME280;5493;48.884;8.338;2024-01-10T09:45:04;101205.84;;;-0.42;100.00
10881;BME280;5493;48.884;8.338;2024-01-10T09:47:31;101209.97;;;-0.49;100.00
10881;BME280;5493;48.884;8.338;2024-01-10T09:49:58;101208.34;;;-0.09;100.00
10881;BME280;5493;48.884;8.338;2024-01-10T09:52:27;101203.34;;;-0.23;100.00
10881;BME280;5493;48.884;8.338;2024-01-10T09:54:57;101206.91;;;-0.13;100.00
10881;BME280;5493;48.884;8.338;2024-01-10T09:57:24;101207.19;;;-0.16;100.00
10881;BME280;5493;48.884;8.338;2024-01-10T09:59:50;101207.88;;;-0.14;100.00
10881;BME280;5493;48.884;8.338;2024-01-10T10:02:18;101212.41;;;0.16;100.00
10881;BME280;5493;48.884;8.338;2024-01-10T10:04:51;101217.72;;;0.16;100.00
10881;BME280;5493;48.884;8.338;2024-01-10T10:07:20;101226.53;;;0.17;100.00
10881;BME280;5493;48.884;8.338;2024-01-10T10:09:46;101218.16;;;0.42;100.00
10881;BME280;5493;48.884;8.338;2024-01-10T10:12:14;101215.66;;;0.20;100.00
10881;BME280;5493;48.884;8.338;2024-01-10T10:14:40;101218.94;;;0.33;100.00
10881;BME280;5493;48.884;8.338;2024-01-10T10:17:14;101219.13;;;0.20;100.00
10881;BME280;5493;48.884;8.338;2024-01-10T10:19:41;101217.72;;;0.16;100.00
10881;BME280;5493;48.884;8.338;2024-01-10T10:22:08;101214.41;;;0.24;100.00
10881;BME280;5493;48.884;8.338;2024-01-10T10:24:35;101212.38;;;0.37;100.00
10881;BME280;5493;48.884;8.338;2024-01-10T10:27:07;101212.19;;;0.49;100.00
10881;BME280;5493;48.884;8.338;2024-01-10T10:29:36;101216.34;;;0.73;100.00
10881;BME280;5493;48.884;8.338;2024-01-10T10:32:03;101207.47;;;0.93;100.00
10881;BME280;5493;48.884;8.338;2024-01-10T10:34:30;101205.19;;;0.79;100.00
10881;BME280;5493;48.884;8.338;2024-01-10T10:36:57;101204.75;;;1.14;100.00
10881;BME280;5493;48.884;8.338;2024-01-10T10:39:24;101204.75;;;1.14;100.00
10881;BME280;5493;48.884;8.338;2024-01-10T10:41:51;101195.66;;;1.16;100.00
10881;BME280;5493;48.884;8.338;2024-01-10T10:44:23;101199.34;;;0.85;100.00
10881;BME280;5493;48.884;8.338;2024-01-10T10:46:53;101209.38;;;0.72;100.00
10881;BME280;5493;48.884;8.338;2024-01-10T10:49:26;101213.84;;;0.81;100.00
10881;BME280;5493;48.884;8.338;2024-01-10T10:51:57;101207.78;;;0.99;100.00
10881;BME280;5493;48.884;8.338;2024-01-10T10:54:25;101213.09;;;1.09;100.00
10881;BME280;5493;48.884;8.338;2024-01-10T10:56:54;101209.09;;;1.24;100.00
10881;BME280;5493;48.884;8.338;2024-01-10T10:59:22;101208.97;;;1.35;100.00
10881;BME280;5493;48.884;8.338;2024-01-10T11:01:49;101207.84;;;1.28;100.00
10881;BME280;5493;48.884;8.338;2024-01-10T11:04:18;101201.69;;;1.28;100.00
10881;BME280;5493;48.884;8.338;2024-01-10T11:06:45;101209.94;;;1.25;100.00
10881;BME280;5493;48.884;8.338;2024-01-10T11:09:15;101214.16;;;1.56;100.00
10881;BME280;5493;48.884;8.338;2024-01-10T11:11:58;101213.59;;;1.53;100.00
10881;BME280;5493;48.884;8.338;2024-01-10T11:14:38;101210.81;;;1.64;100.00
10881;BME280;5493;48.884;8.338;2024-01-10T11:17:25;101210.00;;;1.73;98.92
10881;BME280;5493;48.884;8.338;2024-01-10T11:20:29;101210.13;;;1.71;97.91
10881;BME280;5493;48.884;8.338;2024-01-10T11:23:20;101214.47;;;1.63;95.91
10881;BME280;5493;48.884;8.338;2024-01-10T11:25:49;101209.41;;;1.88;98.46
10881;BME280;5493;48.884;8.338;2024-01-10T11:28:16;101198.75;;;2.08;96.52
10881;BME280;5493;48.884;8.338;2024-01-10T11:30:48;101198.91;;;2.06;94.10
10881;BME280;5493;48.884;8.338;2024-01-10T11:33:21;101200.84;;;2.14;94.13
10881;BME280;5493;48.884;8.338;2024-01-10T11:36:09;101190.78;;;1.88;91.05
10881;BME280;5493;48.884;8.338;2024-01-10T11:38:41;101200.16;;;2.12;91.58
10881;BME280;5493;48.884;8.338;2024-01-10T11:41:06;101193.31;;;1.99;89.58
10881;BME280;5493;48.884;8.338;2024-01-10T11:43:34;101200.97;;;2.31;95.93
10881;BME280;5493;48.884;8.338;2024-01-10T11:46:02;101195.91;;;2.28;86.92
10881;BME280;5493;48.884;8.338;2024-01-10T11:48:31;101190.34;;;2.12;89.10
10881;BME280;5493;48.884;8.338;2024-01-10T11:50:58;101188.84;;;2.00;88.23
10881;BME280;5493;48.884;8.338;2024-01-10T11:53:40;101188.13;;;2.08;88.92
10881;BME280;5493;48.884;8.338;2024-01-10T11:56:12;101189.78;;;2.65;90.47
10881;BME280;5493;48.884;8.338;2024-01-10T11:58:53;101178.75;;;2.50;85.63
10881;BME280;5493;48.884;8.338;2024-01-10T12:01:19;101182.25;;;2.60;86.86
10881;BME280;5493;48.884;8.338;2024-01-10T12:03:47;101175.72;;;2.45;86.51
10881;BME280;5493;48.884;8.338;2024-01-10T12:06:14;101173.19;;;2.80;86.91
10881;BME280;5493;48.884;8.338;2024-01-10T12:08:42;101184.50;;;2.82;85.90
10881;BME280;5493;48.884;8.338;2024-01-10T12:11:08;101183.47;;;2.66;83.85
10881;BME280;5493;48.884;8.338;2024-01-10T12:13:35;101179.00;;;2.66;84.80
10881;BME280;5493;48.884;8.338;2024-01-10T12:16:01;101179.66;;;2.78;83.50
10881;BME280;5493;48.884;8.338;2024-01-10T12:18:28;101176.47;;;3.55;82.19
10881;BME280;5493;48.884;8.338;2024-01-10T12:20:54;101179.31;;;3.53;77.74
10881;BME280;5493;48.884;8.338;2024-01-10T12:23:21;101170.59;;;4.30;76.90
10881;BME280;5493;48.884;8.338;2024-01-10T12:25:49;101168.25;;;4.61;73.10
10881;BME280;5493;48.884;8.338;2024-01-10T12:28:16;101168.38;;;5.51;68.45
10881;BME280;5493;48.884;8.338;2024-01-10T12:30:42;101164.84;;;5.51;66.37
10881;BME280;5493;48.884;8.338;2024-01-10T12:33:09;101157.78;;;5.09;64.67
10881;BME280;5493;48.884;8.338;2024-01-10T12:35:36;101151.53;;;5.99;63.20
10881;BME280;5493;48.884;8.338;2024-01-10T12:38:03;101142.97;;;6.20;61.13
10881;BME280;5493;48.884;8.338;2024-01-10T12:40:31;101144.59;;;6.37;59.25
10881;BME280;5493;48.884;8.338;2024-01-10T12:43:05;101145.63;;;6.28;59.81
10881;BME280;5493;48.884;8.338;2024-01-10T12:45:34;101144.78;;;6.43;58.79
10881;BME280;5493;48.884;8.338;2024-01-10T12:48:01;101144.22;;;6.48;57.91
10881;BME280;5493;48.884;8.338;2024-01-10T12:50:28;101145.22;;;6.55;58.32
10881;BME280;5493;48.884;8.338;2024-01-10T12:52:54;101136.25;;;6.40;60.16
10881;BME280;5493;48.884;8.338;2024-01-10T12:55:26;101139.16;;;5.98;58.92
10881;BME280;5493;48.884;8.338;2024-01-10T12:57:52;101140.16;;;6.05;60.17
10881;BME280;5493;48.884;8.338;2024-01-10T13:00:20;101134.13;;;6.11;60.31
10881;BME280;5493;48.884;8.338;2024-01-10T13:02:47;101142.13;;;5.63;60.84
10881;BME280;5493;48.884;8.338;2024-01-10T13:05:13;101141.63;;;5.35;61.16
10881;BME280;5493;48.884;8.338;2024-01-10T13:07:40;101145.69;;;5.96;61.97
10881;BME280;5493;48.884;8.338;2024-01-10T13:10:07;101139.13;;;5.50;62.20
10881;BME280;5493;48.884;8.338;2024-01-10T13:12:33;101146.75;;;5.28;63.66
10881;BME280;5493;48.884;8.338;2024-01-10T13:15:00;101137.47;;;5.57;62.17
10881;BME280;5493;48.884;8.338;2024-01-10T13:17:28;101144.31;;;5.75;61.28
10881;BME280;5493;48.884;8.338;2024-01-10T13:19:55;101133.44;;;5.77;62.07
10881;BME280;5493;48.884;8.338;2024-01-10T13:22:23;101142.13;;;6.19;65.26
10881;BME280;5493;48.884;8.338;2024-01-10T13:24:49;101141.97;;;5.80;60.23
10881;BME280;5493;48.884;8.338;2024-01-10T13:27:16;101144.31;;;5.83;59.63
10881;BME280;5493;48.884;8.338;2024-01-10T13:29:42;101147.53;;;6.03;59.13
10881;BME280;5493;48.884;8.338;2024-01-10T13:32:09;101149.50;;;5.69;59.19
10881;BME280;5493;48.884;8.338;2024-01-10T13:34:37;101151.19;;;6.10;59.78
10881;BME280;5493;48.884;8.338;2024-01-10T13:37:03;101145.41;;;6.54;60.37
10881;BME280;5493;48.884;8.338;2024-01-10T13:39:30;101155.22;;;6.06;58.10
10881;BME280;5493;48.884;8.338;2024-01-10T13:41:56;101148.00;;;6.15;57.54
10881;BME280;5493;48.884;8.338;2024-01-10T13:44:23;101151.53;;;5.99;58.71
10881;BME280;5493;48.884;8.338;2024-01-10T13:46:49;101162.75;;;6.03;58.20
10881;BME280;5493;48.884;8.338;2024-01-10T13:49:16;101165.06;;;6.22;59.13
10881;BME280;5493;48.884;8.338;2024-01-10T13:51:44;101157.72;;;6.08;58.42
10881;BME280;5493;48.884;8.338;2024-01-10T13:54:10;101158.06;;;5.88;60.03
10881;BME280;5493;48.884;8.338;2024-01-10T13:56:37;101164.09;;;6.15;58.09
10881;BME280;5493;48.884;8.338;2024-01-10T13:59:04;101162.19;;;5.59;59.95
10881;BME280;5493;48.884;8.338;2024-01-10T14:01:31;101164.19;;;5.65;60.54
10881;BME280;5493;48.884;8.338;2024-01-10T14:03:57;101157.53;;;6.09;61.92
10881;BME280;5493;48.884;8.338;2024-01-10T14:06:24;101167.84;;;5.39;59.36
10881;BME280;5493;48.884;8.338;2024-01-10T14:08:52;101163.00;;;5.27;61.30
10881;BME280;5493;48.884;8.338;2024-01-10T14:11:18;101171.88;;;5.52;61.46
10881;BME280;5493;48.884;8.338;2024-01-10T14:13:45;101163.00;;;5.43;60.62
10881;BME280;5493;48.884;8.338;2024-01-10T14:16:11;101163.31;;;5.24;62.23
10881;BME280;5493;48.884;8.338;2024-01-10T14:18:38;101160.88;;;4.96;62.64
10881;BME280;5493;48.884;8.338;2024-01-10T14:21:04;101161.91;;;5.04;63.32
10881;BME280;5493;48.884;8.338;2024-01-10T14:23:31;101149.72;;;5.01;63.16
10881;BME280;5493;48.884;8.338;2024-01-10T14:25:59;101151.31;;;4.86;64.30
10881;BME280;5493;48.884;8.338;2024-01-10T14:28:26;101152.44;;;4.41;65.57
10881;BME280;5493;48.884;8.338;2024-01-10T14:30:52;101148.50;;;4.54;66.83
10881;BME280;5493;48.884;8.338;2024-01-10T14:33:19;101155.66;;;4.79;70.46
10881;BME280;5493;48.884;8.338;2024-01-10T14:35:45;101147.06;;;4.67;66.68
10881;BME280;5493;48.884;8.338;2024-01-10T14:38:12;101160.56;;;4.58;66.97
10881;BME280;5493;48.884;8.338;2024-01-10T14:40:39;101163.16;;;3.98;68.82
10881;BME280;5493;48.884;8.338;2024-01-10T14:43:07;101161.69;;;4.21;69.64
10881;BME280;5493;48.884;8.338;2024-01-10T14:45:33;101159.78;;;4.14;69.40
10881;BME280;5493;48.884;8.338;2024-01-10T14:48:01;101164.47;;;4.37;71.32
10881;BME280;5493;48.884;8.338;2024-01-10T14:50:28;101167.97;;;3.94;70.16
10881;BME280;5493;48.884;8.338;2024-01-10T14:52:55;101167.69;;;4.23;72.04
10881;BME280;5493;48.884;8.338;2024-01-10T14:55:22;101169.94;;;4.10;71.93
10881;BME280;5493;48.884;8.338;2024-01-10T14:57:49;101170.66;;;4.20;75.19
10881;BME280;5493;48.884;8.338;2024-01-10T15:00:17;101184.44;;;4.08;75.89
10881;BME280;5493;48.884;8.338;2024-01-10T15:02:44;101179.53;;;3.60;74.71
10881;BME280;5493;48.884;8.338;2024-01-10T15:05:11;101176.41;;;3.46;75.86
10881;BME280;5493;48.884;8.338;2024-01-10T15:07:38;101181.00;;;3.54;80.97
10881;BME280;5493;48.884;8.338;2024-01-10T15:10:05;101179.84;;;3.39;77.63
10881;BME280;5493;48.884;8.338;2024-01-10T15:12:32;101187.13;;;3.37;80.29
10881;BME280;5493;48.884;8.338;2024-01-10T15:14:59;101197.13;;;3.35;79.82
10881;BME280;5493;48.884;8.338;2024-01-10T15:17:27;101193.75;;;3.33;81.82
10881;BME280;5493;48.884;8.338;2024-01-10T15:19:53;101191.66;;;3.09;81.65